sensor_id;sensor_type;location;lat;lon;timestamp;pressure;altitude;pressure_sealevel;temperature;humidity
50368;BME280;36281;34.132;-118.018;2023-04-04T00:01:55;99767.53;;;18.12;17.42
50368;BME280;36281;34.132;-118.018;2023-04-04T00:04:25;99766.22;;;18.34;18.31
50368;BME280;36281;34.132;-118.018;2023-04-04T00:06:54;99776.63;;;18.05;17.72
50368;BME280;36281;34.132;-118.018;2023-04-04T00:09:23;99770.19;;;18.06;17.64
50368;BME280;36281;34.132;-118.018;2023-04-04T00:11:52;99772.28;;;17.99;18.62
50368;BME280;36281;34.132;-118.018;2023-04-04T00:14:21;99783.31;;;18.08;19.72
50368;BME280;36281;34.132;-118.018;2023-04-04T00:16:50;99784.28;;;17.81;18.41
50368;BME280;36281;34.132;-118.018;2023-04-04T00:19:21;99784.47;;;17.70;18.41
50368;BME280;36281;34.132;-118.018;2023-04-04T00:21:50;99790.25;;;17.46;19.17
50368;BME280;36281;34.132;-118.018;2023-04-04T00:24:19;99793.66;;;17.37;18.65
50368;BME280;36281;34.132;-118.018;2023-04-04T00:26:49;99788.13;;;17.11;19.11
50368;BME280;36281;34.132;-118.018;2023-04-04T00:29:18;99804.47;;;17.15;19.90
50368;BME280;36281;34.132;-118.018;2023-04-04T00:31:47;99802.69;;;16.93;19.20
50368;BME280;36281;34.132;-118.018;2023-04-04T00:34:16;99787.78;;;17.02;19.54
50368;BME280;36281;34.132;-118.018;2023-04-04T00:36:47;99805.75;;;17.07;19.69
50368;BME280;36281;34.132;-118.018;2023-04-04T00:39:16;99806.22;;;16.99;19.26
50368;BME280;36281;34.132;-118.018;2023-04-04T00:41:47;99810.22;;;16.96;19.60
50368;BME280;36281;34.132;-118.018;2023-04-04T00:44:16;99813.25;;;16.78;19.11
50368;BME280;36281;34.132;-118.018;2023-04-04T00:46:46;99818.88;;;16.54;18.84
50368;BME280;36281;34.132;-118.018;2023-04-04T00:49:15;99808.06;;;16.44;18.56
50368;BME280;36281;34.132;-118.018;2023-04-04T00:51:44;99806.09;;;16.57;18.55
50368;BME280;36281;34.132;-118.018;2023-04-04T00:54:15;99807.72;;;16.36;19.47
50368;BME280;36281;34.132;-118.018;2023-04-04T00:56:44;99805.09;;;16.41;20.25
50368;BME280;36281;34.132;-118.018;2023-04-04T00:59:14;99805.50;;;16.27;19.49
50368;BME280;36281;34.132;-118.018;2023-04-04T01:01:43;99823.84;;;16.19;19.00
50368;BME280;36281;34.132;-118.018;2023-04-04T01:04:12;99820.03;;;16.15;19.46
50368;BME280;36281;34.132;-118.018;2023-04-04T01:06:43;99810.66;;;15.90;19.01
50368;BME280;36281;34.132;-118.018;2023-04-04T01:09:15;99817.94;;;15.95;18.57
50368;BME280;36281;34.132;-118.018;2023-04-04T01:11:44;99802.09;;;15.88;18.80
50368;BME280;36281;34.132;-118.018;2023-04-04T01:14:13;99816.63;;;15.59;19.00
50368;BME280;36281;34.132;-118.018;2023-04-04T01:16:42;99830.50;;;15.61;18.45
50368;BME280;36281;34.132;-118.018;2023-04-04T01:19:16;99831.56;;;15.60;18.72
50368;BME280;36281;34.132;-118.018;2023-04-04T01:21:48;99834.34;;;15.65;18.96
50368;BME280;36281;34.132;-118.018;2023-04-04T01:24:21;99838.88;;;15.64;18.81
50368;BME280;36281;34.132;-118.018;2023-04-04T01:26:53;99837.16;;;15.41;18.63
50368;BME280;36281;34.132;-118.018;2023-04-04T01:29:22;99848.84;;;15.18;19.33
50368;BME280;36281;34.132;-118.018;2023-04-04T01:31:55;99850.53;;;15.24;19.78
50368;BME280;36281;34.132;-118.018;2023-04-04T01:34:30;99855.06;;;15.24;19.67
50368;BME280;36281;34.132;-118.018;2023-04-04T01:37:05;99850.34;;;15.31;19.71
50368;BME280;36281;34.132;-118.018;2023-04-04T01:39:38;99855.69;;;15.31;19.71
50368;BME280;36281;34.132;-118.018;2023-04-04T01:42:12;99850.44;;;15.19;19.58
50368;BME280;36281;34.132;-118.018;2023-04-04T01:44:43;99859.59;;;15.07;19.62
50368;BME280;36281;34.132;-118.018;2023-04-04T01:47:13;99867.69;;;15.12;20.34
50368;BME280;36281;34.132;-118.018;2023-04-04T01:49:42;99871.44;;;15.16;20.15
50368;BME280;36281;34.132;-118.018;2023-04-04T01:52:12;99877.19;;;15.08;20.18
50368;BME280;36281;34.132;-118.018;2023-04-04T01:54:41;99878.47;;;15.05;20.23
50368;BME280;36281;34.132;-118.018;2023-04-04T01:57:11;99883.06;;;14.93;20.04
50368;BME280;36281;34.132;-118.018;2023-04-04T01:59:41;99896.72;;;14.96;20.07
50368;BME280;36281;34.132;-118.018;2023-04-04T02:02:10;99897.22;;;14.93;20.49
50368;BME280;36281;34.132;-118.018;2023-04-04T02:04:39;99892.41;;;14.79;19.83
50368;BME280;36281;34.132;-118.018;2023-04-04T02:07:08;99897.66;;;14.73;19.21
50368;BME280;36281;34.132;-118.018;2023-04-04T02:09:37;99905.06;;;14.71;19.09
50368;BME280;36281;34.132;-118.018;2023-04-04T02:12:07;99902.88;;;14.68;19.23
50368;BME280;36281;34.132;-118.018;2023-04-04T02:14:38;99922.75;;;14.49;19.09
50368;BME280;36281;34.132;-118.018;2023-04-04T02:17:08;99907.91;;;14.41;19.10
50368;BME280;36281;34.132;-118.018;2023-04-04T02:19:37;99909.75;;;14.41;18.08
50368;BME280;36281;34.132;-118.018;2023-04-04T02:22:06;99921.72;;;14.38;18.70
50368;BME280;36281;34.132;-118.018;2023-04-04T02:24:35;99928.56;;;14.34;18.77
50368;BME280;36281;34.132;-118.018;2023-04-04T02:27:04;99928.44;;;14.29;18.22
50368;BME280;36281;34.132;-118.018;2023-04-04T02:29:34;99944.00;;;14.09;19.38
50368;BME280;36281;34.132;-118.018;2023-04-04T02:32:04;99943.28;;;14.02;18.08
50368;BME280;36281;34.132;-118.018;2023-04-04T02:34:33;99947.47;;;13.98;19.18
50368;BME280;36281;34.132;-118.018;2023-04-04T02:37:02;99946.97;;;13.77;18.75
50368;BME280;36281;34.132;-118.018;2023-04-04T02:39:32;99936.22;;;13.60;18.85
50368;BME280;36281;34.132;-118.018;2023-04-04T02:42:01;99947.09;;;13.59;19.05
50368;BME280;36281;34.132;-118.018;2023-04-04T02:44:30;99952.03;;;13.43;19.69
50368;BME280;36281;34.132;-118.018;2023-04-04T02:46:59;99954.38;;;13.22;20.26
50368;BME280;36281;34.132;-118.018;2023-04-04T02:49:30;99955.63;;;13.19;19.87
50368;BME280;36281;34.132;-118.018;2023-04-04T02:51:59;99972.03;;;13.16;20.12
50368;BME280;36281;34.132;-118.018;2023-04-04T02:54:28;99969.91;;;13.25;20.31
50368;BME280;36281;34.132;-118.018;2023-04-04T02:56:57;99962.28;;;13.28;20.48
50368;BME280;36281;34.132;-118.018;2023-04-04T02:59:26;99965.69;;;13.17;20.55
50368;BME280;36281;34.132;-118.018;2023-04-04T03:01:55;99967.06;;;13.08;20.84
50368;BME280;36281;34.132;-118.018;2023-04-04T03:04:24;99982.91;;;13.14;21.17
50368;BME280;36281;34.132;-118.018;2023-04-04T03:06:55;99978.25;;;13.10;21.19
50368;BME280;36281;34.132;-118.018;2023-04-04T03:09:25;99995.69;;;13.06;21.03
50368;BME280;36281;34.132;-118.018;2023-04-04T03:11:54;99997.78;;;12.85;21.30
50368;BME280;36281;34.132;-118.018;2023-04-04T03:14:23;99993.00;;;12.94;21.49
50368;BME280;36281;34.132;-118.018;2023-04-04T03:16:54;100008.28;;;12.99;21.66
50368;BME280;36281;34.132;-118.018;2023-04-04T03:19:23;100010.78;;;12.93;22.20
50368;BME280;36281;34.132;-118.018;2023-04-04T03:21:54;99996.63;;;12.81;21.73
50368;BME280;36281;34.132;-118.018;2023-04-04T03:24:23;100020.28;;;13.01;21.79
50368;BME280;36281;34.132;-118.018;2023-04-04T03:26:52;100026.50;;;12.95;21.63
50368;BME280;36281;34.132;-118.018;2023-04-04T03:29:21;100029.41;;;12.75;21.83
50368;BME280;36281;34.132;-118.018;2023-04-04T03:31:50;100018.69;;;12.82;21.63
50368;BME280;36281;34.132;-118.018;2023-04-04T03:34:20;100026.44;;;12.83;22.04
50368;BME280;36281;34.132;-118.018;2023-04-04T03:36:50;100037.44;;;12.87;21.68
50368;BME280;36281;34.132;-118.018;2023-04-04T03:39:26;100045.34;;;12.75;20.49
50368;BME280;36281;34.132;-118.018;2023-04-04T03:41:57;100046.38;;;12.74;20.89
50368;BME280;36281;34.132;-118.018;2023-04-04T03:44:26;100056.56;;;12.77;21.33
50368;BME280;36281;34.132;-118.018;2023-04-04T03:46:55;100049.84;;;12.75;21.76
50368;BME280;36281;34.132;-118.018;2023-04-04T03:49:24;100067.19;;;12.77;21.60
50368;BME280;36281;34.132;-118.018;2023-04-04T03:51:54;100055.91;;;12.63;20.85
50368;BME280;36281;34.132;-118.018;2023-04-04T03:54:26;100069.78;;;12.65;20.34
50368;BME280;36281;34.132;-118.018;2023-04-04T03:56:56;100081.13;;;12.54;19.96
50368;BME280;36281;34.132;-118.018;2023-04-04T03:59:25;100067.22;;;12.52;20.38
50368;BME280;36281;34.132;-118.018;2023-04-04T04:01:54;100089.38;;;12.21;20.77
50368;BME280;36281;34.132;-118.018;2023-04-04T04:04:24;100078.69;;;12.28;20.48
50368;BME280;36281;34.132;-118.018;2023-04-04T04:06:53;100086.88;;;12.26;20.35
50368;BME280;36281;34.132;-118.018;2023-04-04T04:09:25;100084.50;;;12.18;20.79
50368;BME280;36281;34.132;-118.018;2023-04-04T04:11:54;100099.84;;;12.16;20.66
50368;BME280;36281;34.132;-118.018;2023-04-04T04:14:24;100103.94;;;12.12;20.80
50368;BME280;36281;34.132;-118.018;2023-04-04T04:16:54;100102.66;;;12.21;20.98
50368;BME280;36281;34.132;-118.018;2023-04-04T04:19:23;100107.53;;;12.24;20.68
50368;BME280;36281;34.132;-118.018;2023-04-04T04:21:52;100098.16;;;12.22;20.99
50368;BME280;36281;34.132;-118.018;2023-04-04T04:24:21;100125.75;;;12.21;20.98
50368;BME280;36281;34.132;-118.018;2023-04-04T04:26:52;100127.97;;;12.24;20.87
50368;BME280;36281;34.132;-118.018;2023-04-04T04:29:21;100129.63;;;12.18;21.76
50368;BME280;36281;34.132;-118.018;2023-04-04T04:31:50;100125.34;;;12.17;21.46
50368;BME280;36281;34.132;-118.018;2023-04-04T04:34:21;100142.09;;;12.18;21.46
50368;BME280;36281;34.132;-118.018;2023-04-04T04:36:50;100135.56;;;12.20;22.67
50368;BME280;36281;34.132;-118.018;2023-04-04T04:39:20;100146.59;;;12.17;21.71
50368;BME280;36281;34.132;-118.018;2023-04-04T04:41:49;100150.06;;;12.18;21.56
50368;BME280;36281;34.132;-118.018;2023-04-04T04:44:20;100138.75;;;12.04;21.52
50368;BME280;36281;34.132;-118.018;2023-04-04T04:46:49;100154.09;;;11.95;21.14
50368;BME280;36281;34.132;-118.018;2023-04-04T04:49:18;100152.25;;;11.96;21.33
50368;BME280;36281;34.132;-118.018;2023-04-04T04:51:47;100156.75;;;11.95;21.50
50368;BME280;36281;34.132;-118.018;2023-04-04T04:54:16;100160.03;;;11.90;20.07
50368;BME280;36281;34.132;-118.018;2023-04-04T04:56:45;100168.59;;;11.93;20.75
50368;BME280;36281;34.132;-118.018;2023-04-04T04:59:15;100182.72;;;11.86;20.57
50368;BME280;36281;34.132;-118.018;2023-04-04T05:01:45;100172.94;;;11.80;21.23
50368;BME280;36281;34.132;-118.018;2023-04-04T05:04:15;100173.16;;;11.79;21.48
50368;BME280;36281;34.132;-118.018;2023-04-04T05:06:45;100177.94;;;11.57;20.45
50368;BME280;36281;34.132;-118.018;2023-04-04T05:09:14;100184.13;;;11.44;21.11
50368;BME280;36281;34.132;-118.018;2023-04-04T05:11:43;100190.00;;;11.46;21.22
50368;BME280;36281;34.132;-118.018;2023-04-04T05:14:12;100191.63;;;11.54;20.80
50368;BME280;36281;34.132;-118.018;2023-04-04T05:16:41;100187.72;;;11.56;20.86
50368;BME280;36281;34.132;-118.018;2023-04-04T05:19:14;100195.47;;;11.58;21.68
50368;BME280;36281;34.132;-118.018;2023-04-04T05:21:43;100197.72;;;11.61;21.85
50368;BME280;36281;34.132;-118.018;2023-04-04T05:24:12;100209.94;;;11.62;21.75
50368;BME280;36281;34.132;-118.018;2023-04-04T05:26:41;100209.13;;;11.61;22.09
50368;BME280;36281;34.132;-118.018;2023-04-04T05:29:10;100208.09;;;11.62;21.96
50368;BME280;36281;34.132;-118.018;2023-04-04T05:31:39;100207.09;;;11.57;22.09
50368;BME280;36281;34.132;-118.018;2023-04-04T05:34:09;100190.38;;;11.56;22.40
50368;BME280;36281;34.132;-118.018;2023-04-04T05:36:39;100189.59;;;11.49;23.07
50368;BME280;36281;34.132;-118.018;2023-04-04T05:39:09;100199.81;;;11.46;24.08
50368;BME280;36281;34.132;-118.018;2023-04-04T05:41:38;100200.22;;;11.43;24.62
50368;BME280;36281;34.132;-118.018;2023-04-04T05:44:07;100200.84;;;11.38;25.32
50368;BME280;36281;34.132;-118.018;2023-04-04T05:46:36;100190.66;;;11.28;25.95
50368;BME280;36281;34.132;-118.018;2023-04-04T05:49:05;100186.00;;;11.17;24.68
50368;BME280;36281;34.132;-118.018;2023-04-04T05:51:34;100203.75;;;11.17;23.94
50368;BME280;36281;34.132;-118.018;2023-04-04T05:54:05;100200.69;;;11.13;24.72
50368;BME280;36281;34.132;-118.018;2023-04-04T05:56:34;100201.53;;;11.07;25.32
50368;BME280;36281;34.132;-118.018;2023-04-04T05:59:04;100204.38;;;11.05;26.42
50368;BME280;36281;34.132;-118.018;2023-04-04T06:01:33;100176.88;;;11.00;25.03
50368;BME280;36281;34.132;-118.018;2023-04-04T06:04:02;100200.09;;;10.98;24.79
50368;BME280;36281;34.132;-118.018;2023-04-04T06:06:31;100194.22;;;10.96;25.40
50368;BME280;36281;34.132;-118.018;2023-04-04T06:09:00;100190.56;;;10.90;25.11
50368;BME280;36281;34.132;-118.018;2023-04-04T06:11:31;100203.59;;;10.92;24.67
50368;BME280;36281;34.132;-118.018;2023-04-04T06:14:00;100203.59;;;10.92;24.28
50368;BME280;36281;34.132;-118.018;2023-04-04T06:16:29;100210.50;;;10.93;24.77
50368;BME280;36281;34.132;-118.018;2023-04-04T06:18:59;100201.97;;;10.91;25.20
50368;BME280;36281;34.132;-118.018;2023-04-04T06:21:28;100198.69;;;10.88;24.54
50368;BME280;36281;34.132;-118.018;2023-04-04T06:23:57;100202.38;;;10.87;24.37
50368;BME280;36281;34.132;-118.018;2023-04-04T06:26:26;100215.59;;;10.87;24.60
50368;BME280;36281;34.132;-118.018;2023-04-04T06:28:56;100205.22;;;10.86;24.94
50368;BME280;36281;34.132;-118.018;2023-04-04T06:31:25;100210.13;;;10.89;24.73
50368;BME280;36281;34.132;-118.018;2023-04-04T06:33:54;100195.66;;;10.85;25.33
50368;BME280;36281;34.132;-118.018;2023-04-04T06:36:23;100210.75;;;10.84;25.31
50368;BME280;36281;34.132;-118.018;2023-04-04T06:38:53;100209.72;;;10.85;25.04
50368;BME280;36281;34.132;-118.018;2023-04-04T06:41:22;100202.78;;;10.84;24.95
50368;BME280;36281;34.132;-118.018;2023-04-04T06:43:51;100214.59;;;10.82;25.61
50368;BME280;36281;34.132;-118.018;2023-04-04T06:46:21;100202.38;;;10.81;25.43
50368;BME280;36281;34.132;-118.018;2023-04-04T06:48:50;100209.31;;;10.75;25.24
50368;BME280;36281;34.132;-118.018;2023-04-04T06:51:19;100217.44;;;10.74;24.47
50368;BME280;36281;34.132;-118.018;2023-04-04T06:53:49;100205.63;;;10.76;24.60
50368;BME280;36281;34.132;-118.018;2023-04-04T06:56:18;100222.13;;;10.78;25.43
50368;BME280;36281;34.132;-118.018;2023-04-04T06:58:47;100219.50;;;10.72;25.20
50368;BME280;36281;34.132;-118.018;2023-04-04T07:01:17;100205.44;;;10.71;25.40
50368;BME280;36281;34.132;-118.018;2023-04-04T07:03:47;100198.72;;;10.75;25.77
50368;BME280;36281;34.132;-118.018;2023-04-04T07:06:21;100228.44;;;10.64;24.87
50368;BME280;36281;34.132;-118.018;2023-04-04T07:08:52;100220.50;;;10.71;24.95
50368;BME280;36281;34.132;-118.018;2023-04-04T07:11:21;100220.31;;;10.72;25.32
50368;BME280;36281;34.132;-118.018;2023-04-04T07:13:54;100217.66;;;10.72;25.51
50368;BME280;36281;34.132;-118.018;2023-04-04T07:16:23;100206.84;;;10.67;24.89
50368;BME280;36281;34.132;-118.018;2023-04-04T07:18:55;100213.16;;;10.53;25.17
50368;BME280;36281;34.132;-118.018;2023-04-04T07:21:24;100215.63;;;10.61;25.38
50368;BME280;36281;34.132;-118.018;2023-04-04T07:23:53;100229.28;;;10.65;25.92
50368;BME280;36281;34.132;-118.018;2023-04-04T07:26:21;100220.91;;;10.68;25.84
50368;BME280;36281;34.132;-118.018;2023-04-04T07:28:50;100226.63;;;10.71;25.58
50368;BME280;36281;34.132;-118.018;2023-04-04T07:31:20;100216.25;;;10.70;25.35
50368;BME280;36281;34.132;-118.018;2023-04-04T07:33:50;100234.19;;;10.74;25.17
50368;BME280;36281;34.132;-118.018;2023-04-04T07:36:22;100221.94;;;10.73;25.39
50368;BME280;36281;34.132;-118.018;2023-04-04T07:38:51;100226.03;;;10.76;25.46
50368;BME280;36281;34.132;-118.018;2023-04-04T07:41:21;100225.81;;;10.77;25.54
50368;BME280;36281;34.132;-118.018;2023-04-04T07:43:50;100225.78;;;10.64;25.56
50368;BME280;36281;34.132;-118.018;2023-04-04T07:46:19;100232.31;;;10.68;25.47
50368;BME280;36281;34.132;-118.018;2023-04-04T07:48:48;100229.47;;;10.56;26.11
50368;BME280;36281;34.132;-118.018;2023-04-04T07:51:18;100223.16;;;10.64;25.57
50368;BME280;36281;34.132;-118.018;2023-04-04T07:53:57;100222.75;;;10.60;25.47
50368;BME280;36281;34.132;-118.018;2023-04-04T07:56:26;100234.97;;;10.68;25.62
50368;BME280;36281;34.132;-118.018;2023-04-04T07:58:55;100224.97;;;10.64;26.21
50368;BME280;36281;34.132;-118.018;2023-04-04T08:01:24;100211.75;;;10.64;26.17
50368;BME280;36281;34.132;-118.018;2023-04-04T08:03:54;100211.53;;;10.58;26.28
50368;BME280;36281;34.132;-118.018;2023-04-04T08:06:24;100233.97;;;10.49;25.76
50368;BME280;36281;34.132;-118.018;2023-04-04T08:08:53;100225.59;;;10.46;25.79
50368;BME280;36281;34.132;-118.018;2023-04-04T08:11:24;100226.81;;;10.50;25.75
50368;BME280;36281;34.132;-118.018;2023-04-04T08:13:53;100221.72;;;10.48;26.43
50368;BME280;36281;34.132;-118.018;2023-04-04T08:16:22;100220.28;;;10.59;26.74
50368;BME280;36281;34.132;-118.018;2023-04-04T08:18:51;100219.09;;;10.55;26.85
50368;BME280;36281;34.132;-118.018;2023-04-04T08:21:20;100213.75;;;10.48;27.30
50368;BME280;36281;34.132;-118.018;2023-04-04T08:23:49;100221.09;;;10.53;26.86
50368;BME280;36281;34.132;-118.018;2023-04-04T08:26:18;100222.72;;;10.54;27.07
50368;BME280;36281;34.132;-118.018;2023-04-04T08:28:49;100230.28;;;10.50;27.12
50368;BME280;36281;34.132;-118.018;2023-04-04T08:31:18;100219.69;;;10.50;27.17
50368;BME280;36281;34.132;-118.018;2023-04-04T08:33:47;100215.41;;;10.49;27.45
50368;BME280;36281;34.132;-118.018;2023-04-04T08:36:17;100225.38;;;10.47;27.75
50368;BME280;36281;34.132;-118.018;2023-04-04T08:38:47;100228.25;;;10.52;27.86
50368;BME280;36281;34.132;-118.018;2023-04-04T08:41:16;100233.53;;;10.52;28.23
50368;BME280;36281;34.132;-118.018;2023-04-04T08:43:48;100220.47;;;10.38;28.54
50368;BME280;36281;34.132;-118.018;2023-04-04T08:46:22;100230.69;;;10.47;28.20
50368;BME280;36281;34.132;-118.018;2023-04-04T08:48:52;100216.63;;;10.40;28.22
50368;BME280;36281;34.132;-118.018;2023-04-04T08:51:25;100226.00;;;10.49;28.67
50368;BME280;36281;34.132;-118.018;2023-04-04T08:53:59;100226.41;;;10.53;28.84
50368;BME280;36281;34.132;-118.018;2023-04-04T08:56:29;100208.88;;;10.52;28.62
50368;BME280;36281;34.132;-118.018;2023-04-04T08:58:59;100199.94;;;10.46;28.96
50368;BME280;36281;34.132;-118.018;2023-04-04T09:01:29;100199.13;;;10.46;28.80
50368;BME280;36281;34.132;-118.018;2023-04-04T09:03:59;100204.38;;;10.39;29.17
50368;BME280;36281;34.132;-118.018;2023-04-04T09:06:30;100214.38;;;10.37;28.99
50368;BME280;36281;34.132;-118.018;2023-04-04T09:09:01;100216.63;;;10.47;29.18
50368;BME280;36281;34.132;-118.018;2023-04-04T09:11:31;100209.91;;;10.51;29.52
50368;BME280;36281;34.132;-118.018;2023-04-04T09:14:03;100220.50;;;10.51;29.72
50368;BME280;36281;34.132;-118.018;2023-04-04T09:16:32;100222.31;;;10.44;29.97
50368;BME280;36281;34.132;-118.018;2023-04-04T09:19:01;100220.72;;;10.49;30.34
50368;BME280;36281;34.132;-118.018;2023-04-04T09:21:32;100210.72;;;10.51;29.96
50368;BME280;36281;34.132;-118.018;2023-04-04T09:24:01;100243.72;;;10.49;29.80
50368;BME280;36281;34.132;-118.018;2023-04-04T09:26:46;100215.22;;;10.51;30.48
50368;BME280;36281;34.132;-118.018;2023-04-04T09:29:19;100224.78;;;10.52;30.77
50368;BME280;36281;34.132;-118.018;2023-04-04T09:31:49;100204.41;;;10.46;30.41
50368;BME280;36281;34.132;-118.018;2023-04-04T09:34:20;100222.13;;;10.52;30.79
50368;BME280;36281;34.132;-118.018;2023-04-04T09:36:49;100218.06;;;10.49;30.42
50368;BME280;36281;34.132;-118.018;2023-04-04T09:39:19;100214.41;;;10.50;30.65
50368;BME280;36281;34.132;-118.018;2023-04-04T09:41:50;100207.25;;;10.51;30.99
50368;BME280;36281;34.132;-118.018;2023-04-04T09:44:24;100215.41;;;10.49;31.12
50368;BME280;36281;34.132;-118.018;2023-04-04T09:47:06;100210.94;;;10.50;31.30
50368;BME280;36281;34.132;-118.018;2023-04-04T09:49:58;100222.72;;;10.47;31.30
50368;BME280;36281;34.132;-118.018;2023-04-04T09:52:31;100218.47;;;10.46;31.10
50368;BME280;36281;34.132;-118.018;2023-04-04T09:55:04;100209.69;;;10.46;31.71
50368;BME280;36281;34.132;-118.018;2023-04-04T09:57:34;100203.19;;;10.42;31.92
50368;BME280;36281;34.132;-118.018;2023-04-04T10:00:08;100221.28;;;10.38;32.22
50368;BME280;36281;34.132;-118.018;2023-04-04T10:02:46;100203.50;;;10.19;32.34
50368;BME280;36281;34.132;-118.018;2023-04-04T10:05:16;100206.81;;;10.27;31.00
50368;BME280;36281;34.132;-118.018;2023-04-04T10:07:45;100196.88;;;10.29;31.39
50368;BME280;36281;34.132;-118.018;2023-04-04T10:10:15;100205.78;;;10.28;31.96
50368;BME280;36281;34.132;-118.018;2023-04-04T10:12:45;100198.06;;;10.27;31.73
50368;BME280;36281;34.132;-118.018;2023-04-04T10:15:17;100188.91;;;10.29;31.85
50368;BME280;36281;34.132;-118.018;2023-04-04T10:17:46;100183.63;;;10.29;31.51
50368;BME280;36281;34.132;-118.018;2023-04-04T10:20:16;100211.09;;;10.28;31.52
50368;BME280;36281;34.132;-118.018;2023-04-04T10:22:46;100206.81;;;10.27;31.57
50368;BME280;36281;34.132;-118.018;2023-04-04T10:25:16;100194.00;;;10.31;31.51
50368;BME280;36281;34.132;-118.018;2023-04-04T10:27:45;100189.53;;;10.31;31.82
50368;BME280;36281;34.132;-118.018;2023-04-04T10:30:18;100200.13;;;10.31;31.48
50368;BME280;36281;34.132;-118.018;2023-04-04T10:33:01;100194.59;;;10.33;31.42
50368;BME280;36281;34.132;-118.018;2023-04-04T10:35:35;100196.88;;;10.29;32.11
50368;BME280;36281;34.132;-118.018;2023-04-04T10:38:06;100208.88;;;10.32;31.85
50368;BME280;36281;34.132;-118.018;2023-04-04T10:40:36;100205.78;;;10.28;32.04
50368;BME280;36281;34.132;-118.018;2023-04-04T10:43:07;100206.81;;;10.27;32.15
50368;BME280;36281;34.132;-118.018;2023-04-04T10:45:43;100205.41;;;10.25;32.17
50368;BME280;36281;34.132;-118.018;2023-04-04T10:48:13;100190.88;;;10.14;31.96
50368;BME280;36281;34.132;-118.018;2023-04-04T10:50:43;100206.31;;;10.04;31.58
50368;BME280;36281;34.132;-118.018;2023-04-04T10:53:12;100188.66;;;10.11;31.80
50368;BME280;36281;34.132;-118.018;2023-04-04T10:55:42;100190.28;;;10.12;32.17
50368;BME280;36281;34.132;-118.018;2023-04-04T10:58:13;100187.63;;;10.12;32.01
50368;BME280;36281;34.132;-118.018;2023-04-04T11:00:51;100182.94;;;10.14;32.24
50368;BME280;36281;34.132;-118.018;2023-04-04T11:03:22;100182.13;;;10.14;32.60
50368;BME280;36281;34.132;-118.018;2023-04-04T11:05:53;100184.16;;;10.12;32.06
50368;BME280;36281;34.132;-118.018;2023-04-04T11:08:30;100190.06;;;10.07;32.01
50368;BME280;36281;34.132;-118.018;2023-04-04T11:11:04;100190.06;;;10.07;31.80
50368;BME280;36281;34.132;-118.018;2023-04-04T11:13:58;100192.50;;;10.08;31.88
50368;BME280;36281;34.132;-118.018;2023-04-04T11:16:44;100203.88;;;10.02;32.00
50368;BME280;36281;34.132;-118.018;2023-04-04T11:19:14;100202.03;;;9.96;32.40
50368;BME280;36281;34.132;-118.018;2023-04-04T11:21:44;100200.63;;;10.00;32.20
50368;BME280;36281;34.132;-118.018;2023-04-04T11:24:14;100202.47;;;10.00;32.20
50368;BME280;36281;34.132;-118.018;2023-04-04T11:26:44;100202.66;;;9.98;32.35
50368;BME280;36281;34.132;-118.018;2023-04-04T11:29:21;100210.59;;;9.98;32.80
50368;BME280;36281;34.132;-118.018;2023-04-04T11:32:30;100207.94;;;9.98;33.04
50368;BME280;36281;34.132;-118.018;2023-04-04T11:35:04;100205.66;;;9.89;32.25
50368;BME280;36281;34.132;-118.018;2023-04-04T11:37:42;100219.72;;;9.89;31.76
50368;BME280;36281;34.132;-118.018;2023-04-04T11:40:12;100219.13;;;9.94;31.98
50368;BME280;36281;34.132;-118.018;2023-04-04T11:42:42;100223.59;;;9.93;32.18
50368;BME280;36281;34.132;-118.018;2023-04-04T11:45:18;100219.31;;;9.92;32.57
50368;BME280;36281;34.132;-118.018;2023-04-04T11:47:49;100217.69;;;9.91;32.68
50368;BME280;36281;34.132;-118.018;2023-04-04T11:50:18;100230.72;;;9.93;33.12
50368;BME280;36281;34.132;-118.018;2023-04-04T11:52:49;100226.66;;;9.90;33.85
50368;BME280;36281;34.132;-118.018;2023-04-04T11:55:20;100230.72;;;9.86;33.01
50368;BME280;36281;34.132;-118.018;2023-04-04T11:57:50;100240.03;;;9.82;34.42
50368;BME280;36281;34.132;-118.018;2023-04-04T12:00:30;100227.63;;;9.82;34.26
50368;BME280;36281;34.132;-118.018;2023-04-04T12:03:01;100235.78;;;9.81;34.96
50368;BME280;36281;34.132;-118.018;2023-04-04T12:05:32;100234.75;;;9.75;33.47
50368;BME280;36281;34.132;-118.018;2023-04-04T12:08:03;100244.69;;;9.73;33.08
50368;BME280;36281;34.132;-118.018;2023-04-04T12:10:34;100245.69;;;9.72;33.62
50368;BME280;36281;34.132;-118.018;2023-04-04T12:13:06;100244.88;;;9.72;33.98
50368;BME280;36281;34.132;-118.018;2023-04-04T12:15:35;100245.91;;;9.71;33.54
50368;BME280;36281;34.132;-118.018;2023-04-04T12:18:10;100237.16;;;9.70;33.68
50368;BME280;36281;34.132;-118.018;2023-04-04T12:20:50;100240.78;;;9.69;33.77
50368;BME280;36281;34.132;-118.018;2023-04-04T12:23:20;100235.91;;;9.66;33.83
50368;BME280;36281;34.132;-118.018;2023-04-04T12:25:50;100236.53;;;9.68;34.11
50368;BME280;36281;34.132;-118.018;2023-04-04T12:28:22;100237.75;;;9.66;34.31
50368;BME280;36281;34.132;-118.018;2023-04-04T12:30:55;100234.28;;;9.65;34.95
50368;BME280;36281;34.132;-118.018;2023-04-04T12:33:25;100245.25;;;9.62;35.00
50368;BME280;36281;34.132;-118.018;2023-04-04T12:35:55;100246.44;;;9.59;33.99
50368;BME280;36281;34.132;-118.018;2023-04-04T12:38:24;100245.63;;;9.59;34.09
50368;BME280;36281;34.132;-118.018;2023-04-04T12:40:54;100258.84;;;9.59;33.99